createdAt,value
2018-06-23T00:00:47.702Z,101203.58
2018-06-23T00:03:17.472Z,101196.83
2018-06-23T00:05:47.269Z,101202.22
2018-06-23T00:08:17.036Z,101198.98
2018-06-23T00:10:46.826Z,101207.48
2018-06-23T00:13:16.653Z,101203.00
2018-06-23T00:15:46.521Z,101201.64
2018-06-23T00:18:16.305Z,101195.38
2018-06-23T00:20:46.212Z,101202.67
2018-06-23T00:23:16.029Z,101197.48
2018-06-23T00:25:51.147Z,101197.39
2018-06-23T00:28:21.008Z,101200.27
2018-06-23T00:30:50.878Z,101198.48
2018-06-23T00:33:20.631Z,101195.80
2018-06-23T00:35:50.447Z,101193.03
2018-06-23T00:38:20.223Z,101196.67
2018-06-23T00:40:49.956Z,101194.81
2018-06-23T00:43:19.790Z,101198.12
2018-06-23T00:45:49.688Z,101193.35
2018-06-23T00:48:19.428Z,101197.83
2018-06-23T00:50:49.177Z,101197.28
2018-06-23T00:53:18.932Z,101202.50
2018-06-23T00:55:48.664Z,101201.62
2018-06-23T00:58:19.144Z,101195.69
2018-06-23T01:00:48.895Z,101200.56
2018-06-23T01:03:18.604Z,101200.53
2018-06-23T01:05:48.388Z,101201.54
2018-06-23T01:08:18.191Z,101197.61
2018-06-23T01:10:48.007Z,101202.09
2018-06-23T01:13:17.932Z,101202.09
2018-06-23T01:15:47.773Z,101200.59
2018-06-23T01:18:17.688Z,101204.11
2018-06-23T01:20:47.580Z,101201.70
2018-06-23T01:23:17.898Z,101200.53
2018-06-23T01:25:47.692Z,101193.91
2018-06-23T01:28:17.507Z,101196.77
2018-06-23T01:30:47.376Z,101194.08
2018-06-23T01:33:18.200Z,101194.11
2018-06-23T01:35:48.869Z,101185.31
2018-06-23T01:38:18.908Z,101188.85
2018-06-23T01:40:48.844Z,101183.53
2018-06-23T01:43:18.685Z,101193.49
2018-06-23T01:45:48.652Z,101183.53
2018-06-23T01:48:19.566Z,101181.84
2018-06-23T01:50:50.066Z,101183.47
2018-06-23T01:53:20.124Z,101183.66
2018-06-23T01:55:49.996Z,101182.98
2018-06-23T01:58:20.040Z,101186.28
2018-06-23T02:00:50.198Z,101185.19
2018-06-23T02:03:20.883Z,101191.67
2018-06-23T02:05:51.778Z,101189.34
2018-06-23T02:08:22.616Z,101189.44
2018-06-23T02:10:52.495Z,101187.93
2018-06-23T02:13:23.294Z,101180.77
2018-06-23T02:16:00.949Z,101183.19
2018-06-23T02:18:37.036Z,101186.93
2018-06-23T02:21:12.680Z,101187.03
2018-06-23T02:23:47.766Z,101186.58
2018-06-23T02:26:22.735Z,101191.00
2018-06-23T02:28:57.615Z,101192.81
2018-06-23T02:31:32.407Z,101191.19
2018-06-23T02:34:07.457Z,101191.38
2018-06-23T02:36:37.425Z,101192.02
2018-06-23T02:39:10.387Z,101194.97
2018-06-23T02:41:40.271Z,101188.48
2018-06-23T02:44:10.162Z,101194.06
2018-06-23T02:46:41.031Z,101195.87
2018-06-23T02:49:11.078Z,101200.09
2018-06-23T02:51:41.796Z,101197.09
2018-06-23T02:54:11.775Z,101195.95
2018-06-23T02:56:41.641Z,101199.69
2018-06-23T02:59:12.243Z,101202.80
2018-06-23T03:01:42.247Z,101210.11
2018-06-23T03:04:12.260Z,101205.27
2018-06-23T03:06:42.050Z,101196.81
2018-06-23T03:09:11.903Z,101206.66
2018-06-23T03:11:41.654Z,101204.34
2018-06-23T03:14:11.501Z,101210.31
2018-06-23T03:16:42.367Z,101213.16
2018-06-23T03:19:12.324Z,101210.82
2018-06-23T03:21:42.041Z,101200.98
2018-06-23T03:24:13.727Z,101212.22
2018-06-23T03:26:43.539Z,101212.20
2018-06-23T03:29:13.346Z,101204.92
2018-06-23T03:31:43.134Z,101210.81
2018-06-23T03:34:13.171Z,101215.67
2018-06-23T03:36:42.953Z,101211.88
2018-06-23T03:39:12.893Z,101218.77
2018-06-23T03:41:42.727Z,101210.19
2018-06-23T03:44:13.937Z,101207.61
2018-06-23T03:46:43.743Z,101213.81
2018-06-23T03:49:14.598Z,101207.45
2018-06-23T03:51:44.452Z,101203.25
2018-06-23T03:54:14.672Z,101210.60
2018-06-23T03:56:44.409Z,101209.16
2018-06-23T03:59:14.271Z,101216.65
2018-06-23T04:01:44.095Z,101211.63
2018-06-23T04:04:13.954Z,101209.81
2018-06-23T04:06:43.789Z,101215.86
2018-06-23T04:09:13.650Z,101215.80
2018-06-23T04:11:43.539Z,101202.95
2018-06-23T04:14:14.087Z,101212.81
2018-06-23T04:16:44.492Z,101217.10
2018-06-23T04:19:14.343Z,101216.68
2018-06-23T04:21:44.123Z,101212.93
2018-06-23T04:24:14.026Z,101214.28
2018-06-23T04:26:43.890Z,101217.88
2018-06-23T04:29:13.782Z,101219.06
2018-06-23T04:31:43.562Z,101224.03
2018-06-23T04:34:13.386Z,101214.98
2018-06-23T04:36:43.143Z,101213.91
2018-06-23T04:39:13.043Z,101222.48
2018-06-23T04:41:42.790Z,101221.83
2018-06-23T04:44:12.710Z,101216.48
2018-06-23T04:46:42.544Z,101218.27
2018-06-23T04:49:12.442Z,101216.41
2018-06-23T04:51:42.265Z,101221.48
2018-06-23T04:54:12.190Z,101222.86
2018-06-23T04:56:41.951Z,101218.35
2018-06-23T04:59:11.940Z,101207.70
2018-06-23T05:01:41.762Z,101204.36
2018-06-23T05:04:11.699Z,101211.85
2018-06-23T05:06:41.564Z,101210.20
2018-06-23T05:09:11.198Z,101220.23
2018-06-23T05:11:40.961Z,101214.75
2018-06-23T05:14:10.933Z,101214.61
2018-06-23T05:16:40.786Z,101214.66
2018-06-23T05:19:10.675Z,101213.86
2018-06-23T05:21:40.658Z,101216.22
2018-06-23T05:24:10.458Z,101221.42
2018-06-23T05:26:40.280Z,101221.18
2018-06-23T05:29:10.166Z,101217.38
2018-06-23T05:31:40.122Z,101219.89
2018-06-23T05:34:09.978Z,101216.70
2018-06-23T05:36:39.938Z,101210.81
2018-06-23T05:39:10.770Z,101206.57
2018-06-23T05:41:40.558Z,101209.16
2018-06-23T05:44:10.621Z,101219.75
2018-06-23T05:46:40.474Z,101215.44
2018-06-23T05:49:11.114Z,101216.52
2018-06-23T05:51:40.930Z,101222.66
2018-06-23T05:54:10.885Z,101219.95
2018-06-23T05:56:40.738Z,101221.28
2018-06-23T05:59:10.542Z,101213.42
2018-06-23T06:01:40.279Z,101215.88
2018-06-23T06:04:10.096Z,101215.95
2018-06-23T06:06:39.898Z,101223.08
2018-06-23T06:09:10.597Z,101209.79
2018-06-23T06:11:40.403Z,101225.73
2018-06-23T06:14:10.149Z,101211.25
2018-06-23T06:17:43.509Z,101215.84
2018-06-23T06:20:15.722Z,101209.44
2018-06-23T06:22:47.373Z,101226.50
2018-06-23T06:25:19.208Z,101219.73
2018-06-23T06:27:49.162Z,101224.06
2018-06-23T06:30:19.071Z,101223.63
2018-06-23T06:32:48.864Z,101232.47
2018-06-23T06:35:19.562Z,101235.03
2018-06-23T06:37:49.401Z,101239.50
2018-06-23T06:40:19.250Z,101248.36
2018-06-23T06:42:49.036Z,101253.34
2018-06-23T06:45:18.881Z,101258.49
2018-06-23T06:47:48.376Z,101257.39
2018-06-23T06:50:18.341Z,101258.75
2018-06-23T06:52:48.194Z,101256.85
2018-06-23T06:55:18.036Z,101255.09
2018-06-23T06:57:47.977Z,101257.06
2018-06-23T07:00:17.835Z,101252.66
2018-06-23T07:02:47.684Z,101244.20
2018-06-23T07:05:18.995Z,101241.98
2018-06-23T07:07:48.760Z,101227.11
2018-06-23T07:10:18.645Z,101233.10
2018-06-23T07:12:48.553Z,101230.19
2018-06-23T07:15:18.409Z,101224.20
2018-06-23T07:17:48.255Z,101224.28
2018-06-23T07:20:18.083Z,101222.16
2018-06-23T07:22:47.922Z,101229.57
2018-06-23T07:25:17.796Z,101222.13
2018-06-23T07:27:47.741Z,101218.95
2018-06-23T07:30:17.615Z,101211.66
2018-06-23T07:32:47.509Z,101212.55
2018-06-23T07:35:17.410Z,101216.23
2018-06-23T07:37:47.142Z,101226.09
2018-06-23T07:40:16.952Z,101227.47
2018-06-23T07:42:46.881Z,101233.18
2018-06-23T07:45:16.701Z,101230.58
2018-06-23T07:47:48.870Z,101229.33
2018-06-23T07:50:18.664Z,101228.65
2018-06-23T07:52:48.425Z,101238.77
2018-06-23T07:55:18.334Z,101228.52
2018-06-23T07:57:48.788Z,101223.27
2018-06-23T08:00:18.784Z,101228.78
2018-06-23T08:02:48.488Z,101220.42
2018-06-23T08:05:19.274Z,101228.07
2018-06-23T08:07:49.521Z,101227.65
2018-06-23T08:10:20.497Z,101217.16
2018-06-23T08:12:50.964Z,101226.83
2018-06-23T08:15:21.841Z,101223.64
2018-06-23T08:17:51.793Z,101229.17
2018-06-23T08:20:21.616Z,101226.40
2018-06-23T08:22:51.615Z,101227.64
2018-06-23T08:25:21.440Z,101228.75
2018-06-23T08:27:51.406Z,101242.38
2018-06-23T08:30:21.139Z,101230.69
2018-06-23T08:32:51.696Z,101231.45
2018-06-23T08:35:21.837Z,101220.06
2018-06-23T08:37:52.401Z,101223.88
2018-06-23T08:40:22.511Z,101218.09
2018-06-23T08:42:52.600Z,101220.98
2018-06-23T08:45:23.059Z,101219.26
2018-06-23T08:47:53.183Z,101216.03
2018-06-23T08:50:23.445Z,101216.55
2018-06-23T08:52:53.255Z,101213.23
2018-06-23T08:55:23.376Z,101212.67
2018-06-23T08:57:53.314Z,101205.08
2018-06-23T09:00:23.211Z,101209.29
2018-06-23T09:02:53.013Z,101209.86
2018-06-23T09:05:22.882Z,101208.14
2018-06-23T09:07:52.809Z,101209.55
2018-06-23T09:10:23.166Z,101214.28
2018-06-23T09:12:53.698Z,101206.75
2018-06-23T09:15:24.410Z,101213.91
2018-06-23T09:17:54.309Z,101217.28
2018-06-23T09:20:24.454Z,101218.26
2018-06-23T09:22:54.472Z,101218.00
2018-06-23T09:25:24.267Z,101220.25
2018-06-23T09:27:54.303Z,101223.30
2018-06-23T09:30:24.587Z,101218.54
2018-06-23T09:32:54.445Z,101222.07
2018-06-23T09:35:24.212Z,101223.82
2018-06-23T09:37:54.128Z,101224.78
2018-06-23T09:40:24.527Z,101224.28
2018-06-23T09:42:55.015Z,101225.78
2018-06-23T09:45:25.150Z,101225.42
2018-06-23T09:47:55.130Z,101230.13
2018-06-23T09:50:25.724Z,101232.39
2018-06-23T09:52:56.460Z,101236.05
2018-06-23T09:55:26.949Z,101237.77
2018-06-23T09:57:57.146Z,101235.20
2018-06-23T10:00:28.470Z,101229.84
2018-06-23T10:03:02.004Z,101219.98
2018-06-23T10:05:32.448Z,101229.00
2018-06-23T10:08:02.397Z,101234.06
2018-06-23T10:10:32.258Z,101232.63
2018-06-23T10:13:02.044Z,101227.28
2018-06-23T10:15:32.080Z,101229.53
2018-06-23T10:18:01.893Z,101230.41
2018-06-23T10:20:31.770Z,101222.86
2018-06-23T10:23:01.765Z,101230.97
2018-06-23T10:25:33.215Z,101227.42
2018-06-23T10:28:03.358Z,101224.36
2018-06-23T10:30:34.050Z,101213.68
2018-06-23T10:33:03.855Z,101214.73
2018-06-23T10:35:33.765Z,101206.17
2018-06-23T10:38:03.694Z,101223.61
2018-06-23T10:40:33.812Z,101220.88
2018-06-23T10:43:03.683Z,101217.44
2018-06-23T10:45:34.171Z,101221.80
2018-06-23T10:48:05.172Z,101222.58
2018-06-23T10:50:35.226Z,101214.48
2018-06-23T10:53:06.899Z,101212.36
2018-06-23T10:55:37.462Z,101215.32
2018-06-23T10:58:07.386Z,101208.27
2018-06-23T11:00:38.241Z,101204.34
2018-06-23T11:03:08.147Z,101202.24
2018-06-23T11:05:38.905Z,101201.22
2018-06-23T11:08:08.705Z,101203.36
2018-06-23T11:10:38.497Z,101193.70
2018-06-23T11:13:10.492Z,101199.34
2018-06-23T11:15:41.489Z,101190.55
2018-06-23T11:18:13.768Z,101185.94
2018-06-23T11:20:44.485Z,101191.19
2018-06-23T11:23:14.381Z,101178.53
2018-06-23T11:25:45.826Z,101183.72
2018-06-23T11:28:16.835Z,101184.56
2018-06-23T11:30:49.500Z,101186.03
2018-06-23T11:33:20.367Z,101186.59
2018-06-23T11:35:50.921Z,101190.41
2018-06-23T11:38:21.500Z,101182.58
2018-06-23T11:40:51.296Z,101180.58
2018-06-23T11:43:21.062Z,101187.44
2018-06-23T11:45:51.442Z,101185.16
2018-06-23T11:48:21.877Z,101181.23
2018-06-23T11:50:51.960Z,101170.06
2018-06-23T11:53:22.271Z,101164.50
2018-06-23T11:55:52.052Z,101173.92
2018-06-23T11:58:21.881Z,101166.25
2018-06-23T12:00:52.180Z,101151.41
2018-06-23T12:03:21.990Z,101157.45
2018-06-23T12:05:51.723Z,101153.27
2018-06-23T12:08:21.530Z,101150.49
2018-06-23T12:10:51.310Z,101149.84
2018-06-23T12:13:21.245Z,101133.14
2018-06-23T12:15:51.062Z,101137.03
2018-06-23T12:18:20.864Z,101126.45
2018-06-23T12:20:50.589Z,101124.98
2018-06-23T12:23:20.402Z,101128.42
2018-06-23T12:25:50.146Z,101130.98
2018-06-23T12:28:19.951Z,101121.81
2018-06-23T12:30:49.771Z,101125.46
2018-06-23T12:33:19.600Z,101120.39
2018-06-23T12:35:49.386Z,101125.00
2018-06-23T12:38:19.211Z,101123.91
2018-06-23T12:40:48.998Z,101110.55
2018-06-23T12:43:18.801Z,101114.08
2018-06-23T12:45:50.056Z,101114.25
2018-06-23T12:48:20.708Z,101104.58
2018-06-23T12:56:46.543Z,101105.90
2018-06-23T12:59:17.152Z,101114.95
2018-06-23T13:01:47.717Z,101111.66
2018-06-23T13:04:18.037Z,101109.64
2018-06-23T13:06:48.273Z,101107.41
2018-06-23T13:09:18.441Z,101093.85
2018-06-23T13:11:48.581Z,101101.91
2018-06-23T13:14:18.568Z,101104.64
2018-06-23T13:16:48.737Z,101093.92
2018-06-23T13:19:19.318Z,101096.39
2018-06-23T13:21:49.166Z,101095.38
2018-06-23T13:24:19.613Z,101095.80
2018-06-23T13:26:49.719Z,101091.98
2018-06-23T13:29:19.592Z,101098.41
2018-06-23T13:31:50.452Z,101091.53
2018-06-23T13:34:20.256Z,101091.05
2018-06-23T13:36:50.470Z,101087.18
2018-06-23T13:39:20.289Z,101084.91
2018-06-23T13:41:50.191Z,101078.20
2018-06-23T13:44:20.278Z,101081.91
2018-06-23T13:46:50.573Z,101077.53
2018-06-23T13:49:21.308Z,101075.92
2018-06-23T13:51:51.692Z,101089.77
2018-06-23T13:54:21.835Z,101099.52
2018-06-23T13:56:52.807Z,101087.87
2018-06-23T13:59:22.641Z,101075.59
2018-06-23T14:01:52.475Z,101072.43
2018-06-23T14:04:22.387Z,101093.38
2018-06-23T14:06:52.194Z,101090.81
2018-06-23T14:09:22.041Z,101081.36
2018-06-23T14:11:51.885Z,101089.56
2018-06-23T14:14:21.865Z,101095.88
2018-06-23T14:16:51.901Z,101098.91
2018-06-23T14:19:21.752Z,101100.63
2018-06-23T14:21:51.621Z,101098.22
2018-06-23T14:24:21.541Z,101094.84
2018-06-23T14:26:51.470Z,101086.70
2018-06-23T14:29:21.420Z,101080.23
2018-06-23T14:31:51.664Z,101079.77
2018-06-23T14:34:21.423Z,101073.67
2018-06-23T14:36:51.365Z,101085.31
2018-06-23T14:39:21.226Z,101083.47
2018-06-23T14:41:51.209Z,101069.20
2018-06-23T14:44:20.859Z,101075.53
2018-06-23T14:46:51.290Z,101072.80
2018-06-23T14:49:21.382Z,101075.93
2018-06-23T14:51:51.256Z,101069.20
2018-06-23T14:54:21.267Z,101082.70
2018-06-23T14:56:51.390Z,101082.16
2018-06-23T14:59:21.539Z,101090.86
2018-06-23T15:01:51.595Z,101087.91
2018-06-23T15:04:22.177Z,101089.43
2018-06-23T15:06:51.999Z,101091.37
2018-06-23T15:09:39.157Z,101090.63
2018-06-23T15:12:25.694Z,101090.91
2018-06-23T15:14:55.754Z,101102.09
2018-06-23T15:17:26.844Z,101098.14
2018-06-23T15:20:01.738Z,101092.62
2018-06-23T15:22:31.604Z,101068.50
2018-06-23T15:25:01.601Z,101103.73
2018-06-23T15:27:31.642Z,101102.25
2018-06-23T15:30:01.725Z,101066.76
2018-06-23T15:32:32.756Z,101100.33
2018-06-23T15:35:05.864Z,101105.34
2018-06-23T15:37:37.700Z,101098.19
2018-06-23T15:40:07.816Z,101099.44
2018-06-23T15:42:38.604Z,101103.70
2018-06-23T15:45:09.950Z,101103.43
2018-06-23T15:47:40.590Z,101106.35
2018-06-23T15:50:11.703Z,101113.11
2018-06-23T15:52:42.006Z,101110.84
2018-06-23T15:55:12.090Z,101114.08
2018-06-23T15:57:42.497Z,101100.92
2018-06-23T16:00:12.617Z,101115.31
2018-06-23T16:02:42.692Z,101105.55
2018-06-23T16:05:12.560Z,101117.98
2018-06-23T16:07:44.356Z,101126.90
2018-06-23T16:10:26.330Z,101111.77
2018-06-23T16:12:57.062Z,101109.92
2018-06-23T16:15:27.350Z,101112.95
2018-06-23T16:17:58.639Z,101120.03
2018-06-23T16:20:28.848Z,101113.38
2018-06-23T16:23:00.398Z,101116.88
2018-06-23T16:25:31.070Z,101110.41
2018-06-23T16:28:01.479Z,101119.61
2018-06-23T16:30:31.731Z,101121.98
2018-06-23T16:33:03.729Z,101122.88
2018-06-23T16:35:33.519Z,101119.73
2018-06-23T16:38:03.722Z,101126.98
2018-06-23T16:40:34.213Z,101123.17
2018-06-23T16:43:04.251Z,101123.62
2018-06-23T16:45:34.437Z,101121.87
2018-06-23T16:48:05.581Z,101118.55
2018-06-23T16:50:36.782Z,101119.31
2018-06-23T16:53:07.712Z,101116.69
2018-06-23T16:55:38.056Z,101126.11
2018-06-23T16:58:09.317Z,101127.23
2018-06-23T17:00:40.079Z,101127.35
2018-06-23T17:03:10.328Z,101119.78
2018-06-23T17:05:40.144Z,101126.52
2018-06-23T17:08:10.038Z,101124.97
2018-06-23T17:10:39.977Z,101133.90
2018-06-23T17:13:10.204Z,101128.56
2018-06-23T17:15:40.865Z,101124.90
2018-06-23T17:18:10.833Z,101124.07
2018-06-23T17:20:41.486Z,101129.55
2018-06-23T17:23:12.138Z,101127.67
2018-06-23T17:25:42.099Z,101140.41
2018-06-23T17:28:11.918Z,101130.77
2018-06-23T17:30:43.993Z,101137.83
2018-06-23T17:33:14.286Z,101140.66
2018-06-23T17:35:44.424Z,101132.75
2018-06-23T17:38:14.525Z,101141.21
2018-06-23T17:40:45.882Z,101138.92
2018-06-23T17:43:16.404Z,101141.21
2018-06-23T17:45:46.500Z,101143.28
2018-06-23T17:48:16.140Z,101140.12
2018-06-23T17:50:46.972Z,101137.83
2018-06-23T17:53:17.877Z,101139.42
2018-06-23T17:55:48.148Z,101151.02
2018-06-23T17:58:18.559Z,101158.31
2018-06-23T18:00:49.497Z,101168.80
2018-06-23T18:03:19.857Z,101169.31
2018-06-23T18:05:49.908Z,101174.84
2018-06-23T18:08:20.099Z,101171.08
2018-06-23T18:10:50.137Z,101172.78
2018-06-23T18:13:20.200Z,101164.14
2018-06-23T18:15:53.106Z,101157.27
2018-06-23T18:18:22.880Z,101153.30
2018-06-23T18:20:54.728Z,101159.30
2018-06-23T18:23:24.680Z,101157.77
2018-06-23T18:25:56.394Z,101158.73
2018-06-23T18:28:27.812Z,101156.64
2018-06-23T18:30:57.969Z,101159.47
2018-06-23T18:33:27.925Z,101159.84
2018-06-23T18:35:57.788Z,101155.66
2018-06-23T18:38:28.002Z,101160.20
2018-06-23T18:40:57.847Z,101165.41
2018-06-23T18:43:27.915Z,101160.66
2018-06-23T18:45:57.707Z,101158.40
2018-06-23T18:48:27.672Z,101161.51
2018-06-23T18:50:57.858Z,101164.64
2018-06-23T18:53:27.965Z,101165.07
2018-06-23T18:55:57.760Z,101171.34
2018-06-23T18:58:27.899Z,101165.95
2018-06-23T19:00:59.266Z,101171.28
2018-06-23T19:03:29.451Z,101177.00
2018-06-23T19:05:59.309Z,101179.23
2018-06-23T19:08:29.638Z,101182.77
2018-06-23T19:10:59.124Z,101180.27
2018-06-23T19:13:29.299Z,101180.95
2018-06-23T19:15:59.454Z,101187.28
2018-06-23T19:18:29.288Z,101190.00
2018-06-23T19:20:59.227Z,101189.11
2018-06-23T19:23:29.209Z,101192.66
2018-06-23T19:26:01.551Z,101189.99
2018-06-23T19:28:34.179Z,101190.97
2018-06-23T19:31:03.983Z,101189.91
2018-06-23T19:33:34.846Z,101200.55
2018-06-23T19:36:05.099Z,101202.22
2018-06-23T19:38:35.053Z,101207.44
2018-06-23T19:41:25.671Z,101213.10
2018-06-23T19:43:55.697Z,101216.37
2018-06-23T19:46:25.543Z,101218.13
2018-06-23T19:48:55.323Z,101224.36
2018-06-23T19:51:25.124Z,101221.84
2018-06-23T19:53:56.181Z,101225.97
2018-06-23T19:56:26.291Z,101222.09
2018-06-23T19:58:56.116Z,101222.67
2018-06-23T20:01:27.412Z,101222.27
2018-06-23T20:03:57.371Z,101223.08
2018-06-23T20:06:27.249Z,101227.83
2018-06-23T20:08:57.036Z,101225.70
2018-06-23T20:11:26.962Z,101221.19
2018-06-23T20:13:56.718Z,101215.98
2018-06-23T20:16:26.466Z,101217.33
2018-06-23T20:18:56.258Z,101221.98
2018-06-23T20:21:26.182Z,101222.88
2018-06-23T20:23:55.999Z,101223.22
2018-06-23T20:26:25.902Z,101221.95
2018-06-23T20:28:55.757Z,101221.47
2018-06-23T20:31:25.663Z,101226.73
2018-06-23T20:33:56.301Z,101227.53
2018-06-23T20:36:26.391Z,101224.36
2018-06-23T20:38:56.411Z,101224.02
2018-06-23T20:41:26.353Z,101223.37
2018-06-23T20:43:56.199Z,101230.75
2018-06-23T20:46:26.032Z,101232.78
2018-06-23T20:48:56.159Z,101234.98
2018-06-23T20:51:25.987Z,101232.36
2018-06-23T20:53:56.197Z,101232.95
2018-06-23T20:56:26.095Z,101237.84
2018-06-23T20:58:55.975Z,101240.00
2018-06-23T21:01:25.784Z,101234.03
2018-06-23T21:03:55.634Z,101232.87
2018-06-23T21:06:25.401Z,101234.03
2018-06-23T21:08:55.251Z,101230.95
2018-06-23T21:11:25.140Z,101237.28
2018-06-23T21:13:55.079Z,101232.50
2018-06-23T21:16:26.450Z,101231.56
2018-06-23T21:18:56.371Z,101226.78
2018-06-23T21:21:26.228Z,101234.36
2018-06-23T21:23:56.077Z,101228.73
2018-06-23T21:26:25.903Z,101231.77
2018-06-23T21:28:55.988Z,101230.12
2018-06-23T21:31:26.085Z,101227.14
2018-06-23T21:33:56.334Z,101232.05
2018-06-23T21:36:26.336Z,101230.19
2018-06-23T21:38:56.278Z,101227.65
2018-06-23T21:41:26.130Z,101225.46
2018-06-23T21:43:56.007Z,101227.28
2018-06-23T21:46:25.763Z,101226.39
2018-06-23T21:48:55.779Z,101225.12
2018-06-23T21:51:25.610Z,101228.62
2018-06-23T21:53:55.435Z,101226.78
2018-06-23T21:56:25.251Z,101224.00
2018-06-23T21:58:55.123Z,101224.03
2018-06-23T22:01:25.158Z,101221.38
2018-06-23T22:03:55.155Z,101219.24
2018-06-23T22:06:24.997Z,101218.52
2018-06-23T22:08:54.697Z,101222.91
2018-06-23T22:11:24.628Z,101218.77
2018-06-23T22:13:54.505Z,101217.89
2018-06-23T22:16:26.143Z,101217.20
2018-06-23T22:18:56.097Z,101216.16
2018-06-23T22:21:25.999Z,101215.69
2018-06-23T22:23:55.828Z,101208.30
2018-06-23T22:26:26.590Z,101207.47
2018-06-23T22:28:56.377Z,101206.81
2018-06-23T22:31:26.237Z,101208.66
2018-06-23T22:33:56.194Z,101211.34
2018-06-23T22:36:25.978Z,101203.22
2018-06-23T22:38:55.858Z,101210.00
2018-06-23T22:41:25.625Z,101203.73
2018-06-23T22:43:55.598Z,101208.09
2018-06-23T22:46:25.466Z,101202.11
2018-06-23T22:48:55.430Z,101200.24
2018-06-23T22:51:25.252Z,101203.20
2018-06-23T22:53:55.916Z,101195.92
2018-06-23T22:56:25.682Z,101191.53
2018-06-23T22:58:55.624Z,101194.91
2018-06-23T23:01:25.342Z,101195.06
2018-06-23T23:03:55.476Z,101200.38
2018-06-23T23:06:25.305Z,101201.31
2018-06-23T23:08:55.205Z,101200.83
2018-06-23T23:11:24.969Z,101197.22
2018-06-23T23:13:54.861Z,101193.05
2018-06-23T23:16:24.573Z,101192.81
2018-06-23T23:18:54.319Z,101197.52
2018-06-23T23:21:24.050Z,101190.39
2018-06-23T23:23:53.932Z,101182.09
2018-06-23T23:26:23.715Z,101196.23
2018-06-23T23:28:53.527Z,101190.34
2018-06-23T23:31:23.359Z,101192.12
2018-06-23T23:33:53.193Z,101184.14
2018-06-23T23:36:22.913Z,101185.74
2018-06-23T23:38:52.662Z,101197.51
2018-06-23T23:41:22.363Z,101188.23
2018-06-23T23:43:52.471Z,101190.97
2018-06-23T23:46:22.285Z,101187.44
2018-06-23T23:48:52.153Z,101188.16
2018-06-23T23:51:22.005Z,101188.08
2018-06-23T23:53:51.818Z,101180.59
2018-06-23T23:56:21.929Z,101152.91
2018-06-23T23:58:51.714Z,101179.73
